sensor_id;sensor_type;location;lat;lon;timestamp;P1;durP1;ratioP1;P2;durP2;ratioP2
77191;SDS011;66172;48.526;8.078;2023-04-24T00:00:11;3.33;;;0.50;;
77191;SDS011;66172;48.526;8.078;2023-04-24T00:02:40;8.93;;;0.77;;
77191;SDS011;66172;48.526;8.078;2023-04-24T00:05:16;3.00;;;0.60;;
77191;SDS011;66172;48.526;8.078;2023-04-24T00:07:43;4.05;;;0.70;;
77191;SDS011;66172;48.526;8.078;2023-04-24T00:10:10;2.78;;;0.40;;
77191;SDS011;66172;48.526;8.078;2023-04-24T00:12:37;3.10;;;0.60;;
77191;SDS011;66172;48.526;8.078;2023-04-24T00:15:04;3.83;;;0.50;;
77191;SDS011;66172;48.526;8.078;2023-04-24T00:17:30;3.55;;;0.40;;
77191;SDS011;66172;48.526;8.078;2023-04-24T00:19:56;5.32;;;0.60;;
77191;SDS011;66172;48.526;8.078;2023-04-24T00:22:26;4.05;;;0.50;;
77191;SDS011;66172;48.526;8.078;2023-04-24T00:24:53;3.97;;;0.88;;
77191;SDS011;66172;48.526;8.078;2023-04-24T00:27:19;4.10;;;0.83;;
77191;SDS011;66172;48.526;8.078;2023-04-24T00:29:45;3.38;;;0.75;;
77191;SDS011;66172;48.526;8.078;2023-04-24T00:32:11;3.25;;;0.50;;
77191;SDS011;66172;48.526;8.078;2023-04-24T00:34:37;6.45;;;0.88;;
77191;SDS011;66172;48.526;8.078;2023-04-24T00:37:03;3.17;;;0.50;;
77191;SDS011;66172;48.526;8.078;2023-04-24T00:39:29;3.65;;;0.60;;
77191;SDS011;66172;48.526;8.078;2023-04-24T00:41:55;2.90;;;0.50;;
77191;SDS011;66172;48.526;8.078;2023-04-24T00:44:22;4.68;;;0.52;;
77191;SDS011;66172;48.526;8.078;2023-04-24T00:46:48;3.10;;;0.60;;
77191;SDS011;66172;48.526;8.078;2023-04-24T00:49:18;3.60;;;0.50;;
77191;SDS011;66172;48.526;8.078;2023-04-24T00:51:44;3.30;;;0.60;;
77191;SDS011;66172;48.526;8.078;2023-04-24T00:54:11;4.28;;;0.50;;
77191;SDS011;66172;48.526;8.078;2023-04-24T00:56:37;2.95;;;0.50;;
77191;SDS011;66172;48.526;8.078;2023-04-24T00:59:03;4.27;;;0.70;;
77191;SDS011;66172;48.526;8.078;2023-04-24T01:01:30;3.15;;;0.60;;
77191;SDS011;66172;48.526;8.078;2023-04-24T01:03:56;3.00;;;0.70;;
77191;SDS011;66172;48.526;8.078;2023-04-24T01:06:23;4.22;;;0.70;;
77191;SDS011;66172;48.526;8.078;2023-04-24T01:08:52;3.63;;;0.90;;
77191;SDS011;66172;48.526;8.078;2023-04-24T01:11:20;4.57;;;0.70;;
77191;SDS011;66172;48.526;8.078;2023-04-24T01:13:47;3.20;;;0.60;;
77191;SDS011;66172;48.526;8.078;2023-04-24T01:16:14;3.95;;;0.70;;
77191;SDS011;66172;48.526;8.078;2023-04-24T01:18:40;3.70;;;0.60;;
77191;SDS011;66172;48.526;8.078;2023-04-24T01:21:06;3.83;;;0.82;;
77191;SDS011;66172;48.526;8.078;2023-04-24T01:23:34;4.00;;;0.60;;
77191;SDS011;66172;48.526;8.078;2023-04-24T01:26:00;3.75;;;0.77;;
77191;SDS011;66172;48.526;8.078;2023-04-24T01:28:26;4.82;;;0.60;;
77191;SDS011;66172;48.526;8.078;2023-04-24T01:30:52;3.70;;;0.70;;
77191;SDS011;66172;48.526;8.078;2023-04-24T01:33:20;4.45;;;0.73;;
77191;SDS011;66172;48.526;8.078;2023-04-24T01:35:47;4.23;;;0.70;;
77191;SDS011;66172;48.526;8.078;2023-04-24T01:38:13;3.55;;;0.60;;
77191;SDS011;66172;48.526;8.078;2023-04-24T01:40:40;4.32;;;0.70;;
77191;SDS011;66172;48.526;8.078;2023-04-24T01:43:06;3.53;;;0.65;;
77191;SDS011;66172;48.526;8.078;2023-04-24T01:45:32;3.27;;;0.40;;
77191;SDS011;66172;48.526;8.078;2023-04-24T01:47:58;4.50;;;0.50;;
77191;SDS011;66172;48.526;8.078;2023-04-24T01:50:25;4.43;;;0.80;;
77191;SDS011;66172;48.526;8.078;2023-04-24T01:52:51;3.83;;;0.63;;
77191;SDS011;66172;48.526;8.078;2023-04-24T01:55:17;5.05;;;0.90;;
77191;SDS011;66172;48.526;8.078;2023-04-24T01:57:43;4.50;;;0.70;;
77191;SDS011;66172;48.526;8.078;2023-04-24T02:00:09;3.45;;;0.75;;
77191;SDS011;66172;48.526;8.078;2023-04-24T02:02:38;3.17;;;0.50;;
77191;SDS011;66172;48.526;8.078;2023-04-24T02:05:05;3.90;;;0.60;;
77191;SDS011;66172;48.526;8.078;2023-04-24T02:07:32;4.37;;;0.60;;
77191;SDS011;66172;48.526;8.078;2023-04-24T02:09:58;4.20;;;0.60;;
77191;SDS011;66172;48.526;8.078;2023-04-24T02:12:24;4.20;;;0.80;;
77191;SDS011;66172;48.526;8.078;2023-04-24T02:14:50;3.72;;;1.00;;
77191;SDS011;66172;48.526;8.078;2023-04-24T02:17:16;3.13;;;0.50;;
77191;SDS011;66172;48.526;8.078;2023-04-24T02:19:43;3.95;;;0.60;;
77191;SDS011;66172;48.526;8.078;2023-04-24T02:22:09;3.40;;;0.95;;
77191;SDS011;66172;48.526;8.078;2023-04-24T02:24:36;4.40;;;0.95;;
77191;SDS011;66172;48.526;8.078;2023-04-24T02:27:02;3.78;;;0.60;;
77191;SDS011;66172;48.526;8.078;2023-04-24T02:29:28;3.27;;;0.70;;
77191;SDS011;66172;48.526;8.078;2023-04-24T02:31:54;3.22;;;0.60;;
77191;SDS011;66172;48.526;8.078;2023-04-24T02:34:20;4.13;;;0.55;;
77191;SDS011;66172;48.526;8.078;2023-04-24T02:36:46;4.57;;;0.87;;
77191;SDS011;66172;48.526;8.078;2023-04-24T02:39:12;3.35;;;0.50;;
77191;SDS011;66172;48.526;8.078;2023-04-24T02:41:38;3.15;;;0.70;;
77191;SDS011;66172;48.526;8.078;2023-04-24T02:44:04;3.58;;;0.55;;
77191;SDS011;66172;48.526;8.078;2023-04-24T02:46:30;3.93;;;0.60;;
77191;SDS011;66172;48.526;8.078;2023-04-24T02:48:56;3.45;;;0.47;;
77191;SDS011;66172;48.526;8.078;2023-04-24T02:51:22;4.22;;;0.70;;
77191;SDS011;66172;48.526;8.078;2023-04-24T02:53:48;3.00;;;0.50;;
77191;SDS011;66172;48.526;8.078;2023-04-24T02:56:14;4.20;;;0.53;;
77191;SDS011;66172;48.526;8.078;2023-04-24T02:58:40;3.33;;;0.60;;
77191;SDS011;66172;48.526;8.078;2023-04-24T03:01:06;2.65;;;0.40;;
77191;SDS011;66172;48.526;8.078;2023-04-24T03:03:31;3.23;;;0.50;;
77191;SDS011;66172;48.526;8.078;2023-04-24T03:05:57;3.42;;;0.47;;
77191;SDS011;66172;48.526;8.078;2023-04-24T03:08:24;3.33;;;0.60;;
77191;SDS011;66172;48.526;8.078;2023-04-24T03:10:50;3.00;;;0.40;;
77191;SDS011;66172;48.526;8.078;2023-04-24T03:13:16;2.80;;;0.30;;
77191;SDS011;66172;48.526;8.078;2023-04-24T03:15:42;3.25;;;0.43;;
77191;SDS011;66172;48.526;8.078;2023-04-24T03:18:08;4.18;;;0.50;;
77191;SDS011;66172;48.526;8.078;2023-04-24T03:20:34;4.90;;;0.40;;
77191;SDS011;66172;48.526;8.078;2023-04-24T03:22:59;5.27;;;0.83;;
77191;SDS011;66172;48.526;8.078;2023-04-24T03:25:26;3.10;;;0.40;;
77191;SDS011;66172;48.526;8.078;2023-04-24T03:27:51;3.28;;;0.40;;
77191;SDS011;66172;48.526;8.078;2023-04-24T03:30:17;5.57;;;0.67;;
77191;SDS011;66172;48.526;8.078;2023-04-24T03:32:43;2.93;;;0.37;;
77191;SDS011;66172;48.526;8.078;2023-04-24T03:35:09;5.38;;;0.88;;
77191;SDS011;66172;48.526;8.078;2023-04-24T03:37:35;3.75;;;0.57;;
77191;SDS011;66172;48.526;8.078;2023-04-24T03:40:01;3.97;;;0.33;;
77191;SDS011;66172;48.526;8.078;2023-04-24T03:42:27;5.07;;;0.40;;
77191;SDS011;66172;48.526;8.078;2023-04-24T03:44:53;4.47;;;0.60;;
77191;SDS011;66172;48.526;8.078;2023-04-24T03:47:19;3.95;;;0.60;;
77191;SDS011;66172;48.526;8.078;2023-04-24T03:49:45;3.27;;;0.50;;
77191;SDS011;66172;48.526;8.078;2023-04-24T03:52:11;3.50;;;0.50;;
77191;SDS011;66172;48.526;8.078;2023-04-24T03:54:37;3.83;;;0.77;;
77191;SDS011;66172;48.526;8.078;2023-04-24T03:57:03;4.97;;;1.50;;
77191;SDS011;66172;48.526;8.078;2023-04-24T03:59:30;4.60;;;0.80;;
77191;SDS011;66172;48.526;8.078;2023-04-24T04:01:56;4.25;;;0.85;;
77191;SDS011;66172;48.526;8.078;2023-04-24T04:04:22;4.00;;;0.75;;
77191;SDS011;66172;48.526;8.078;2023-04-24T04:06:48;4.77;;;0.70;;
77191;SDS011;66172;48.526;8.078;2023-04-24T04:09:14;4.60;;;0.75;;
77191;SDS011;66172;48.526;8.078;2023-04-24T04:11:40;4.45;;;0.80;;
77191;SDS011;66172;48.526;8.078;2023-04-24T04:14:06;4.07;;;0.98;;
77191;SDS011;66172;48.526;8.078;2023-04-24T04:16:32;3.60;;;0.80;;
77191;SDS011;66172;48.526;8.078;2023-04-24T04:18:58;4.95;;;0.70;;
77191;SDS011;66172;48.526;8.078;2023-04-24T04:21:24;4.22;;;0.90;;
77191;SDS011;66172;48.526;8.078;2023-04-24T04:23:52;3.40;;;0.70;;
77191;SDS011;66172;48.526;8.078;2023-04-24T04:26:17;4.00;;;0.70;;
77191;SDS011;66172;48.526;8.078;2023-04-24T04:28:44;4.53;;;0.77;;
77191;SDS011;66172;48.526;8.078;2023-04-24T04:31:10;5.93;;;0.70;;
77191;SDS011;66172;48.526;8.078;2023-04-24T04:33:36;3.80;;;0.60;;
77191;SDS011;66172;48.526;8.078;2023-04-24T04:36:03;4.40;;;0.70;;
77191;SDS011;66172;48.526;8.078;2023-04-24T04:38:29;3.88;;;0.70;;
77191;SDS011;66172;48.526;8.078;2023-04-24T04:40:55;5.97;;;0.77;;
77191;SDS011;66172;48.526;8.078;2023-04-24T04:43:24;3.50;;;0.63;;
77191;SDS011;66172;48.526;8.078;2023-04-24T04:45:51;3.60;;;1.08;;
77191;SDS011;66172;48.526;8.078;2023-04-24T04:48:18;3.63;;;0.80;;
77191;SDS011;66172;48.526;8.078;2023-04-24T04:50:44;4.88;;;1.05;;
77191;SDS011;66172;48.526;8.078;2023-04-24T04:53:10;3.65;;;0.70;;
77191;SDS011;66172;48.526;8.078;2023-04-24T04:55:36;4.82;;;0.80;;
77191;SDS011;66172;48.526;8.078;2023-04-24T04:58:02;3.55;;;0.75;;
77191;SDS011;66172;48.526;8.078;2023-04-24T05:00:28;3.73;;;0.90;;
77191;SDS011;66172;48.526;8.078;2023-04-24T05:02:59;4.03;;;0.93;;
77191;SDS011;66172;48.526;8.078;2023-04-24T05:05:25;5.28;;;0.98;;
77191;SDS011;66172;48.526;8.078;2023-04-24T05:07:51;4.85;;;1.00;;
77191;SDS011;66172;48.526;8.078;2023-04-24T05:10:17;4.83;;;0.87;;
77191;SDS011;66172;48.526;8.078;2023-04-24T05:12:43;4.10;;;0.80;;
77191;SDS011;66172;48.526;8.078;2023-04-24T05:15:09;3.47;;;0.80;;
77191;SDS011;66172;48.526;8.078;2023-04-24T05:17:35;3.75;;;1.10;;
77191;SDS011;66172;48.526;8.078;2023-04-24T05:20:02;4.50;;;0.70;;
77191;SDS011;66172;48.526;8.078;2023-04-24T05:22:31;4.13;;;1.00;;
77191;SDS011;66172;48.526;8.078;2023-04-24T05:24:57;4.57;;;1.20;;
77191;SDS011;66172;48.526;8.078;2023-04-24T05:27:23;4.70;;;1.08;;
77191;SDS011;66172;48.526;8.078;2023-04-24T05:29:49;4.40;;;1.00;;
77191;SDS011;66172;48.526;8.078;2023-04-24T05:32:15;4.22;;;1.27;;
77191;SDS011;66172;48.526;8.078;2023-04-24T05:34:41;4.57;;;1.08;;
77191;SDS011;66172;48.526;8.078;2023-04-24T05:37:07;3.40;;;0.75;;
77191;SDS011;66172;48.526;8.078;2023-04-24T05:39:35;4.07;;;1.13;;
77191;SDS011;66172;48.526;8.078;2023-04-24T05:42:02;4.03;;;1.00;;
77191;SDS011;66172;48.526;8.078;2023-04-24T05:44:28;4.20;;;0.93;;
77191;SDS011;66172;48.526;8.078;2023-04-24T05:46:54;3.70;;;1.17;;
77191;SDS011;66172;48.526;8.078;2023-04-24T05:49:22;4.65;;;1.30;;
77191;SDS011;66172;48.526;8.078;2023-04-24T05:51:48;3.80;;;1.00;;
77191;SDS011;66172;48.526;8.078;2023-04-24T05:54:14;5.45;;;1.40;;
77191;SDS011;66172;48.526;8.078;2023-04-24T05:56:40;4.80;;;1.40;;
77191;SDS011;66172;48.526;8.078;2023-04-24T05:59:06;6.15;;;1.30;;
77191;SDS011;66172;48.526;8.078;2023-04-24T06:01:33;5.30;;;1.30;;
77191;SDS011;66172;48.526;8.078;2023-04-24T06:03:59;5.25;;;1.50;;
77191;SDS011;66172;48.526;8.078;2023-04-24T06:06:25;4.20;;;1.50;;
77191;SDS011;66172;48.526;8.078;2023-04-24T06:08:51;4.50;;;1.40;;
77191;SDS011;66172;48.526;8.078;2023-04-24T06:11:17;4.72;;;1.50;;
77191;SDS011;66172;48.526;8.078;2023-04-24T06:13:43;5.20;;;1.30;;
77191;SDS011;66172;48.526;8.078;2023-04-24T06:16:09;6.93;;;2.00;;
77191;SDS011;66172;48.526;8.078;2023-04-24T06:18:35;4.63;;;1.60;;
77191;SDS011;66172;48.526;8.078;2023-04-24T06:21:01;5.90;;;1.63;;
77191;SDS011;66172;48.526;8.078;2023-04-24T06:23:27;6.47;;;1.55;;
77191;SDS011;66172;48.526;8.078;2023-04-24T06:25:52;5.38;;;1.75;;
77191;SDS011;66172;48.526;8.078;2023-04-24T06:28:18;4.32;;;1.73;;
77191;SDS011;66172;48.526;8.078;2023-04-24T06:30:44;5.07;;;1.37;;
77191;SDS011;66172;48.526;8.078;2023-04-24T06:33:10;6.00;;;1.58;;
77191;SDS011;66172;48.526;8.078;2023-04-24T06:35:36;4.72;;;1.40;;
77191;SDS011;66172;48.526;8.078;2023-04-24T06:38:03;5.97;;;1.58;;
77191;SDS011;66172;48.526;8.078;2023-04-24T06:40:29;4.60;;;1.47;;
77191;SDS011;66172;48.526;8.078;2023-04-24T06:42:55;4.90;;;1.52;;
77191;SDS011;66172;48.526;8.078;2023-04-24T06:45:22;5.30;;;1.67;;
77191;SDS011;66172;48.526;8.078;2023-04-24T06:47:47;6.28;;;1.70;;
77191;SDS011;66172;48.526;8.078;2023-04-24T06:50:13;4.20;;;1.23;;
77191;SDS011;66172;48.526;8.078;2023-04-24T06:52:40;6.97;;;1.40;;
77191;SDS011;66172;48.526;8.078;2023-04-24T06:55:06;4.63;;;1.30;;
77191;SDS011;66172;48.526;8.078;2023-04-24T06:57:32;4.10;;;1.20;;
77191;SDS011;66172;48.526;8.078;2023-04-24T06:59:58;6.57;;;1.20;;
77191;SDS011;66172;48.526;8.078;2023-04-24T07:02:24;4.32;;;1.30;;
77191;SDS011;66172;48.526;8.078;2023-04-24T07:04:50;5.40;;;1.23;;
77191;SDS011;66172;48.526;8.078;2023-04-24T07:07:16;4.50;;;1.40;;
77191;SDS011;66172;48.526;8.078;2023-04-24T07:09:42;5.00;;;1.20;;
77191;SDS011;66172;48.526;8.078;2023-04-24T07:12:10;4.18;;;1.40;;
77191;SDS011;66172;48.526;8.078;2023-04-24T07:14:36;7.50;;;1.52;;
77191;SDS011;66172;48.526;8.078;2023-04-24T07:17:03;4.25;;;1.35;;
77191;SDS011;66172;48.526;8.078;2023-04-24T07:19:30;4.47;;;1.52;;
77191;SDS011;66172;48.526;8.078;2023-04-24T07:21:56;4.53;;;1.43;;
77191;SDS011;66172;48.526;8.078;2023-04-24T07:24:24;4.50;;;1.15;;
77191;SDS011;66172;48.526;8.078;2023-04-24T07:26:51;4.75;;;1.40;;
77191;SDS011;66172;48.526;8.078;2023-04-24T07:29:17;5.28;;;1.15;;
77191;SDS011;66172;48.526;8.078;2023-04-24T07:31:46;4.53;;;1.20;;
77191;SDS011;66172;48.526;8.078;2023-04-24T07:34:12;6.47;;;1.53;;
77191;SDS011;66172;48.526;8.078;2023-04-24T07:36:38;4.53;;;1.17;;
77191;SDS011;66172;48.526;8.078;2023-04-24T07:39:04;4.22;;;1.10;;
77191;SDS011;66172;48.526;8.078;2023-04-24T07:41:31;4.68;;;1.25;;
77191;SDS011;66172;48.526;8.078;2023-04-24T07:43:57;6.07;;;1.23;;
77191;SDS011;66172;48.526;8.078;2023-04-24T07:46:24;4.88;;;1.10;;
77191;SDS011;66172;48.526;8.078;2023-04-24T07:48:50;4.25;;;1.27;;
77191;SDS011;66172;48.526;8.078;2023-04-24T07:51:16;4.30;;;1.10;;
77191;SDS011;66172;48.526;8.078;2023-04-24T07:53:43;5.55;;;1.13;;
77191;SDS011;66172;48.526;8.078;2023-04-24T07:56:09;5.53;;;1.20;;
77191;SDS011;66172;48.526;8.078;2023-04-24T07:58:35;4.60;;;1.20;;
77191;SDS011;66172;48.526;8.078;2023-04-24T08:01:01;6.28;;;1.15;;
77191;SDS011;66172;48.526;8.078;2023-04-24T08:03:27;4.10;;;1.00;;
77191;SDS011;66172;48.526;8.078;2023-04-24T08:05:52;4.73;;;1.10;;
77191;SDS011;66172;48.526;8.078;2023-04-24T08:08:20;3.97;;;1.10;;
77191;SDS011;66172;48.526;8.078;2023-04-24T08:10:47;7.00;;;1.20;;
77191;SDS011;66172;48.526;8.078;2023-04-24T08:13:13;4.60;;;1.10;;
77191;SDS011;66172;48.526;8.078;2023-04-24T08:15:39;3.67;;;1.00;;
77191;SDS011;66172;48.526;8.078;2023-04-24T08:18:04;3.28;;;0.82;;
77191;SDS011;66172;48.526;8.078;2023-04-24T08:20:31;4.70;;;1.15;;
77191;SDS011;66172;48.526;8.078;2023-04-24T08:22:56;5.05;;;1.13;;
77191;SDS011;66172;48.526;8.078;2023-04-24T08:25:22;4.20;;;0.80;;
77191;SDS011;66172;48.526;8.078;2023-04-24T08:27:50;4.30;;;0.90;;
77191;SDS011;66172;48.526;8.078;2023-04-24T08:30:16;3.63;;;0.90;;
77191;SDS011;66172;48.526;8.078;2023-04-24T08:32:43;5.82;;;0.80;;
77191;SDS011;66172;48.526;8.078;2023-04-24T08:35:09;5.27;;;1.00;;
77191;SDS011;66172;48.526;8.078;2023-04-24T08:37:35;4.03;;;0.70;;
77191;SDS011;66172;48.526;8.078;2023-04-24T08:40:01;3.80;;;0.77;;
77191;SDS011;66172;48.526;8.078;2023-04-24T08:42:32;4.28;;;0.80;;
77191;SDS011;66172;48.526;8.078;2023-04-24T08:45:01;5.55;;;0.90;;
77191;SDS011;66172;48.526;8.078;2023-04-24T08:47:28;4.67;;;0.70;;
77191;SDS011;66172;48.526;8.078;2023-04-24T08:49:54;3.72;;;0.82;;
77191;SDS011;66172;48.526;8.078;2023-04-24T08:52:21;5.65;;;0.93;;
77191;SDS011;66172;48.526;8.078;2023-04-24T08:54:47;4.38;;;0.73;;
77191;SDS011;66172;48.526;8.078;2023-04-24T08:57:14;3.92;;;0.75;;
77191;SDS011;66172;48.526;8.078;2023-04-24T08:59:40;5.30;;;0.97;;
77191;SDS011;66172;48.526;8.078;2023-04-24T09:02:09;5.68;;;1.02;;
77191;SDS011;66172;48.526;8.078;2023-04-24T09:04:37;3.78;;;0.90;;
77191;SDS011;66172;48.526;8.078;2023-04-24T09:07:03;5.38;;;1.15;;
77191;SDS011;66172;48.526;8.078;2023-04-24T09:09:32;5.40;;;0.90;;
77191;SDS011;66172;48.526;8.078;2023-04-24T09:11:58;6.53;;;1.13;;
77191;SDS011;66172;48.526;8.078;2023-04-24T09:14:24;6.15;;;0.90;;
77191;SDS011;66172;48.526;8.078;2023-04-24T09:16:51;4.53;;;1.00;;
77191;SDS011;66172;48.526;8.078;2023-04-24T09:19:17;4.10;;;1.05;;
77191;SDS011;66172;48.526;8.078;2023-04-24T09:21:45;3.90;;;1.07;;
77191;SDS011;66172;48.526;8.078;2023-04-24T09:24:15;5.45;;;1.27;;
77191;SDS011;66172;48.526;8.078;2023-04-24T09:26:49;5.88;;;0.80;;
77191;SDS011;66172;48.526;8.078;2023-04-24T09:29:21;4.25;;;1.27;;
77191;SDS011;66172;48.526;8.078;2023-04-24T09:31:47;4.10;;;1.10;;
77191;SDS011;66172;48.526;8.078;2023-04-24T09:34:13;5.47;;;1.17;;
77191;SDS011;66172;48.526;8.078;2023-04-24T09:36:42;4.80;;;1.13;;
77191;SDS011;66172;48.526;8.078;2023-04-24T09:39:09;5.28;;;0.88;;
77191;SDS011;66172;48.526;8.078;2023-04-24T09:41:48;4.43;;;0.90;;
77191;SDS011;66172;48.526;8.078;2023-04-24T09:44:21;3.87;;;0.80;;
77191;SDS011;66172;48.526;8.078;2023-04-24T09:46:49;3.92;;;1.00;;
77191;SDS011;66172;48.526;8.078;2023-04-24T09:49:21;5.82;;;1.17;;
77191;SDS011;66172;48.526;8.078;2023-04-24T09:51:48;5.43;;;1.65;;
77191;SDS011;66172;48.526;8.078;2023-04-24T09:54:15;4.17;;;0.80;;
77191;SDS011;66172;48.526;8.078;2023-04-24T09:56:46;3.57;;;0.60;;
77191;SDS011;66172;48.526;8.078;2023-04-24T09:59:19;3.50;;;0.80;;
77191;SDS011;66172;48.526;8.078;2023-04-24T10:01:45;4.22;;;0.95;;
77191;SDS011;66172;48.526;8.078;2023-04-24T10:04:17;3.97;;;0.75;;
77191;SDS011;66172;48.526;8.078;2023-04-24T10:06:45;5.18;;;0.70;;
77191;SDS011;66172;48.526;8.078;2023-04-24T10:09:11;6.20;;;0.70;;
77191;SDS011;66172;48.526;8.078;2023-04-24T10:11:46;6.70;;;0.82;;
77191;SDS011;66172;48.526;8.078;2023-04-24T10:14:14;4.05;;;0.90;;
77191;SDS011;66172;48.526;8.078;2023-04-24T10:16:44;4.22;;;1.00;;
77191;SDS011;66172;48.526;8.078;2023-04-24T10:19:13;5.43;;;1.08;;
77191;SDS011;66172;48.526;8.078;2023-04-24T10:21:40;4.73;;;1.03;;
77191;SDS011;66172;48.526;8.078;2023-04-24T10:24:08;4.10;;;0.73;;
77191;SDS011;66172;48.526;8.078;2023-04-24T10:26:34;3.92;;;1.00;;
77191;SDS011;66172;48.526;8.078;2023-04-24T10:29:02;4.30;;;1.00;;
77191;SDS011;66172;48.526;8.078;2023-04-24T10:31:31;4.07;;;0.98;;
77191;SDS011;66172;48.526;8.078;2023-04-24T10:33:57;3.87;;;1.03;;
77191;SDS011;66172;48.526;8.078;2023-04-24T10:36:25;3.20;;;0.70;;
77191;SDS011;66172;48.526;8.078;2023-04-24T10:38:54;3.67;;;0.90;;
77191;SDS011;66172;48.526;8.078;2023-04-24T10:41:22;4.65;;;1.00;;
77191;SDS011;66172;48.526;8.078;2023-04-24T10:46:52;4.00;;;1.00;;
77191;SDS011;66172;48.526;8.078;2023-04-24T10:49:30;4.25;;;1.48;;
77191;SDS011;66172;48.526;8.078;2023-04-24T10:52:00;4.47;;;1.02;;
77191;SDS011;66172;48.526;8.078;2023-04-24T10:59:46;3.70;;;1.00;;
77191;SDS011;66172;48.526;8.078;2023-04-24T11:02:16;4.15;;;0.85;;
77191;SDS011;66172;48.526;8.078;2023-04-24T11:04:42;3.30;;;0.85;;
77191;SDS011;66172;48.526;8.078;2023-04-24T11:07:09;3.97;;;0.90;;
77191;SDS011;66172;48.526;8.078;2023-04-24T11:09:36;3.13;;;0.60;;
77191;SDS011;66172;48.526;8.078;2023-04-24T11:12:04;3.10;;;0.60;;
77191;SDS011;66172;48.526;8.078;2023-04-24T11:17:31;3.80;;;0.70;;
77191;SDS011;66172;48.526;8.078;2023-04-24T11:22:33;4.00;;;0.77;;
77191;SDS011;66172;48.526;8.078;2023-04-24T11:25:01;3.83;;;0.83;;
77191;SDS011;66172;48.526;8.078;2023-04-24T11:27:29;3.67;;;0.80;;
77191;SDS011;66172;48.526;8.078;2023-04-24T11:32:25;3.75;;;0.88;;
77191;SDS011;66172;48.526;8.078;2023-04-24T11:35:05;6.97;;;0.97;;
77191;SDS011;66172;48.526;8.078;2023-04-24T11:37:39;3.90;;;1.00;;
77191;SDS011;66172;48.526;8.078;2023-04-24T11:40:13;3.33;;;0.80;;
77191;SDS011;66172;48.526;8.078;2023-04-24T11:42:46;3.78;;;0.90;;
77191;SDS011;66172;48.526;8.078;2023-04-24T11:45:14;5.00;;;0.80;;
77191;SDS011;66172;48.526;8.078;2023-04-24T11:47:42;5.83;;;1.17;;
77191;SDS011;66172;48.526;8.078;2023-04-24T11:50:10;3.90;;;0.98;;
77191;SDS011;66172;48.526;8.078;2023-04-24T11:52:39;4.03;;;0.80;;
77191;SDS011;66172;48.526;8.078;2023-04-24T11:55:22;4.15;;;1.00;;
77191;SDS011;66172;48.526;8.078;2023-04-24T11:57:55;3.40;;;0.90;;
77191;SDS011;66172;48.526;8.078;2023-04-24T12:00:23;3.50;;;1.00;;
77191;SDS011;66172;48.526;8.078;2023-04-24T12:02:51;3.97;;;1.30;;
77191;SDS011;66172;48.526;8.078;2023-04-24T12:05:21;5.88;;;1.20;;
77191;SDS011;66172;48.526;8.078;2023-04-24T12:07:51;4.90;;;1.05;;
77191;SDS011;66172;48.526;8.078;2023-04-24T12:10:21;3.72;;;1.20;;
77191;SDS011;66172;48.526;8.078;2023-04-24T12:12:48;5.90;;;1.03;;
77191;SDS011;66172;48.526;8.078;2023-04-24T12:15:17;4.07;;;0.98;;
77191;SDS011;66172;48.526;8.078;2023-04-24T12:17:44;4.90;;;0.93;;
77191;SDS011;66172;48.526;8.078;2023-04-24T12:20:11;6.85;;;1.30;;
77191;SDS011;66172;48.526;8.078;2023-04-24T12:22:47;3.28;;;0.80;;
77191;SDS011;66172;48.526;8.078;2023-04-24T12:25:20;4.77;;;1.10;;
77191;SDS011;66172;48.526;8.078;2023-04-24T12:27:52;4.20;;;1.00;;
77191;SDS011;66172;48.526;8.078;2023-04-24T12:30:20;3.90;;;1.17;;
77191;SDS011;66172;48.526;8.078;2023-04-24T12:32:51;3.97;;;0.90;;
77191;SDS011;66172;48.526;8.078;2023-04-24T12:35:21;4.35;;;1.20;;
77191;SDS011;66172;48.526;8.078;2023-04-24T12:37:48;3.70;;;0.77;;
77191;SDS011;66172;48.526;8.078;2023-04-24T12:40:16;3.83;;;1.00;;
77191;SDS011;66172;48.526;8.078;2023-04-24T12:42:43;3.75;;;0.88;;
77191;SDS011;66172;48.526;8.078;2023-04-24T12:45:11;4.93;;;1.25;;
77191;SDS011;66172;48.526;8.078;2023-04-24T12:47:38;3.70;;;1.05;;
77191;SDS011;66172;48.526;8.078;2023-04-24T12:50:05;5.00;;;1.30;;
77191;SDS011;66172;48.526;8.078;2023-04-24T12:52:31;5.13;;;1.27;;
77191;SDS011;66172;48.526;8.078;2023-04-24T12:54:58;4.10;;;0.98;;
77191;SDS011;66172;48.526;8.078;2023-04-24T12:57:26;4.85;;;1.00;;
77191;SDS011;66172;48.526;8.078;2023-04-24T12:59:54;5.47;;;0.90;;
77191;SDS011;66172;48.526;8.078;2023-04-24T13:02:22;3.63;;;0.88;;
77191;SDS011;66172;48.526;8.078;2023-04-24T13:04:52;5.68;;;1.15;;
77191;SDS011;66172;48.526;8.078;2023-04-24T13:07:18;3.55;;;0.90;;
77191;SDS011;66172;48.526;8.078;2023-04-24T13:09:44;5.85;;;1.10;;
77191;SDS011;66172;48.526;8.078;2023-04-24T13:12:10;5.00;;;0.90;;
77191;SDS011;66172;48.526;8.078;2023-04-24T13:14:37;4.60;;;1.00;;
77191;SDS011;66172;48.526;8.078;2023-04-24T13:17:03;4.40;;;1.20;;
77191;SDS011;66172;48.526;8.078;2023-04-24T13:19:30;4.53;;;1.55;;
77191;SDS011;66172;48.526;8.078;2023-04-24T13:22:02;5.75;;;1.33;;
77191;SDS011;66172;48.526;8.078;2023-04-24T13:24:28;7.60;;;1.47;;
77191;SDS011;66172;48.526;8.078;2023-04-24T13:26:54;4.97;;;1.48;;
77191;SDS011;66172;48.526;8.078;2023-04-24T13:29:22;4.63;;;1.27;;
77191;SDS011;66172;48.526;8.078;2023-04-24T13:31:51;5.00;;;1.30;;
77191;SDS011;66172;48.526;8.078;2023-04-24T13:34:20;6.60;;;1.10;;
77191;SDS011;66172;48.526;8.078;2023-04-24T13:36:47;5.37;;;1.27;;
77191;SDS011;66172;48.526;8.078;2023-04-24T13:39:12;4.65;;;1.50;;
77191;SDS011;66172;48.526;8.078;2023-04-24T13:41:38;3.92;;;1.17;;
77191;SDS011;66172;48.526;8.078;2023-04-24T13:44:05;4.05;;;1.00;;
77191;SDS011;66172;48.526;8.078;2023-04-24T13:46:31;4.17;;;1.17;;
77191;SDS011;66172;48.526;8.078;2023-04-24T13:48:57;4.00;;;1.10;;
77191;SDS011;66172;48.526;8.078;2023-04-24T13:51:24;4.03;;;1.00;;
77191;SDS011;66172;48.526;8.078;2023-04-24T13:53:53;5.85;;;1.33;;
77191;SDS011;66172;48.526;8.078;2023-04-24T13:56:19;5.28;;;1.27;;
77191;SDS011;66172;48.526;8.078;2023-04-24T13:58:45;3.53;;;0.90;;
77191;SDS011;66172;48.526;8.078;2023-04-24T14:01:12;5.72;;;1.15;;
77191;SDS011;66172;48.526;8.078;2023-04-24T14:03:38;5.30;;;1.00;;
77191;SDS011;66172;48.526;8.078;2023-04-24T14:06:04;4.95;;;1.35;;
77191;SDS011;66172;48.526;8.078;2023-04-24T14:08:32;4.88;;;1.42;;
77191;SDS011;66172;48.526;8.078;2023-04-24T14:10:58;4.20;;;1.17;;
77191;SDS011;66172;48.526;8.078;2023-04-24T14:13:24;4.10;;;1.10;;
77191;SDS011;66172;48.526;8.078;2023-04-24T14:15:50;5.45;;;1.20;;
77191;SDS011;66172;48.526;8.078;2023-04-24T14:18:18;5.43;;;1.50;;
77191;SDS011;66172;48.526;8.078;2023-04-24T14:20:44;4.17;;;1.33;;
77191;SDS011;66172;48.526;8.078;2023-04-24T14:23:10;5.00;;;1.30;;
77191;SDS011;66172;48.526;8.078;2023-04-24T14:25:36;4.15;;;1.02;;
77191;SDS011;66172;48.526;8.078;2023-04-24T14:28:02;4.82;;;1.42;;
77191;SDS011;66172;48.526;8.078;2023-04-24T14:30:28;4.90;;;1.40;;
77191;SDS011;66172;48.526;8.078;2023-04-24T14:32:54;4.20;;;1.40;;
77191;SDS011;66172;48.526;8.078;2023-04-24T14:35:20;4.28;;;1.08;;
77191;SDS011;66172;48.526;8.078;2023-04-24T14:37:45;3.60;;;1.00;;
77191;SDS011;66172;48.526;8.078;2023-04-24T14:40:11;4.57;;;1.40;;
77191;SDS011;66172;48.526;8.078;2023-04-24T14:42:38;4.90;;;1.20;;
77191;SDS011;66172;48.526;8.078;2023-04-24T14:45:04;5.22;;;1.15;;
77191;SDS011;66172;48.526;8.078;2023-04-24T14:47:30;4.82;;;1.50;;
77191;SDS011;66172;48.526;8.078;2023-04-24T14:49:56;4.00;;;1.20;;
77191;SDS011;66172;48.526;8.078;2023-04-24T14:52:22;4.33;;;1.10;;
77191;SDS011;66172;48.526;8.078;2023-04-24T14:54:47;4.28;;;1.20;;
77191;SDS011;66172;48.526;8.078;2023-04-24T14:57:13;4.03;;;1.17;;
77191;SDS011;66172;48.526;8.078;2023-04-24T14:59:39;4.93;;;1.23;;
77191;SDS011;66172;48.526;8.078;2023-04-24T15:02:06;5.22;;;1.15;;